Tuesday, January 22, 2019, 4:39 PM EST
Back to Local

KOWD, Norwood Memorial Airport

Location: Norwood, MA, United States Lat: 42.183
Local Time: 4:39 PM EST (21:39 GMT) Lon: -71.167
Time Zone: US/Eastern Elev: 49 ft

Show me the last for .
Show Decoded

2019-01-22 15:53 METAR KOWD 222053Z 29009KT 10SM CLR M02/M19 A3054 RMK AO2 SLP343 T10171189 53014
                 =
2019-01-22 14:53 METAR KOWD 221953Z 29008KT 10SM CLR M02/M18 A3052 RMK AO2 SLP334 T10171183 =
2019-01-22 13:53 METAR KOWD 221853Z 30012KT 10SM CLR M03/M20 A3051 RMK AO2 SLP331 T10281200 =
2019-01-22 12:53 METAR KOWD 221753Z 30011G17KT 10SM CLR M04/M19 A3050 RMK AO2 SLP329 T10391189
                 11039 21128 58005 =
2019-01-22 11:53 METAR KOWD 221653Z 29009KT 10SM CLR M06/M20 A3052 RMK AO2 SLP334 T10561200 =
2019-01-22 10:53 METAR KOWD 221553Z 29012KT 10SM CLR M07/M21 A3053 RMK AO2 SLP339 T10671206 =
2019-01-22 09:53 METAR KOWD 221453Z 30012KT 10SM CLR M08/M21 A3051 RMK AO2 SLP333 T10831206 51032
                 =
2019-01-22 08:53 METAR KOWD 221353Z 28008KT 10SM CLR M11/M21 A3049 RMK AO2 SLP326 T11061211 =
2019-01-22 07:53 METAR KOWD 221253Z 27010KT 10SM CLR M12/M22 A3047 RMK AO2 SLP319 T11221217 =
2019-01-22 06:53 METAR KOWD 221153Z 28017G23KT 10SM CLR M13/M22 A3042 RMK AO2 SLP301 T11281222
                 11128 21144 51047 =
2019-01-22 05:53 METAR KOWD 221053Z AUTO 30007KT 10SM CLR M13/M23 A3038 RMK AO2 SLP289 T11331228
                 =
2019-01-22 04:53 METAR KOWD 220953Z AUTO 30010KT 10SM CLR M14/M23 A3033 RMK AO2 SLP271 T11391228
                 =
2019-01-22 03:53 METAR KOWD 220853Z AUTO 29010G20KT 10SM CLR M13/M23 A3028 RMK AO2 SLP254
                 T11331233 53034 =
2019-01-22 02:53 METAR KOWD 220753Z AUTO 29011KT 10SM CLR M13/M23 A3024 RMK AO2 SLP241 T11331233
                 =
2019-01-22 01:53 METAR KOWD 220653Z AUTO 30012G17KT 10SM CLR M14/M23 A3021 RMK AO2 SLP231
                 T11391233 =
2019-01-22 00:53 METAR KOWD 220553Z AUTO 29011KT 10SM CLR M14/M24 A3018 RMK AO2 SLP220 60000
                 T11391239 11139 21144 51027 =
2019-01-21 23:53 METAR KOWD 220453Z AUTO 29010KT 10SM CLR M14/M23 A3017 RMK AO2 SLP216 T11391233
                 411281161 =
2019-01-21 22:53 METAR KOWD 220353Z AUTO 29009G17KT 10SM OVC070 M14/M22 A3014 RMK AO2 SLP208
                 T11391217 =
2019-01-21 21:53 METAR KOWD 220253Z AUTO 30012G20KT 10SM OVC050 M14/M22 A3010 RMK AO2 SLP193
                 60000 T11391217 51034 =
2019-01-21 20:53 METAR KOWD 220153Z AUTO 32014G24KT 10SM OVC047 M14/M22 A3007 RMK AO2 PK WND
                 29026/0138 SNB23E36 SLP183 P0000 T11391217 =
2019-01-21 19:53 METAR KOWD 220053Z 31016G23KT 7SM OVC036 M14/M20 A3003 RMK AO2 SLP170 T11391200
                 =
2019-01-21 18:53 METAR KOWD 212353Z 30012G20KT 4SM HZ OVC038 M14/M19 A3000 RMK AO2 PK WND
                 30027/2307 SLP159 60000 T11441194 11133 21144 53039 =
2019-01-21 17:53 METAR KOWD 212253Z 30014G23KT 10SM SCT046 OVC070 M14/M21 A2996 RMK AO2 SLP145
                 T11441211 =
2019-01-21 16:53 METAR KOWD 212153Z 30010G19KT 10SM OVC048 M14/M21 A2992 RMK AO2 PK WND
                 32028/2122 SLP131 T11441211 =

Support USWX by starting your Amazon purchase here.